Time;durP1;ratioP1;P1;durP2;ratioP2;P2;SDS_P1;SDS_P2;PMS_P1;PMS_P2;Temp;Humidity;BMP_temperature;BMP_pressure;BME280_temperature;BME280_humidity;BME280_pressure;Samples;Min_cycle;Max_cycle;Signal;HPM_P1;HPM_P2
2023/06/21 00:01:55;;;;;;;;;;;;;;;;;;5063709;28;19928;-67
2023/06/21 00:04:22;;;;;;;;;;;;;;;;;;5062271;28;19936;-67
2023/06/21 00:06:49;;;;;;;;;;;;;;;;;;5065465;28;19929;-67
2023/06/21 00:09:16;;;;;;;;;;;;;;;;;;5061970;28;19925;-67
2023/06/21 00:11:43;;;;;;;;;;;;;;;;;;5064644;28;19925;-67
2023/06/21 00:14:10;;;;;;;;;;;;;;;;;;5062099;28;19975;-67
2023/06/21 00:16:37;;;;;;;;;;;;;;;;;;5064975;28;19943;-67
2023/06/21 00:19:04;;;;;;;;;;;;;;;;;;5062707;28;19924;-66
2023/06/21 00:21:31;;;;;;;;;;;;;;;;;;5063815;28;19928;-67
2023/06/21 00:24:01;;;;;;;;;;;;;;;;;;5066037;28;19970;-66
2023/06/21 00:26:28;;;;;;;;;;;;;;;;;;5060690;28;20297;-67
2023/06/21 00:28:55;;;;;;;;;;;;;;;;;;5062437;28;20381;-67
2023/06/21 00:31:22;;;;;;;;;;;;;;;;;;5061529;28;20452;-67
2023/06/21 00:33:49;;;;;;;;;;;;;;;;;;5064334;28;20415;-67
2023/06/21 00:36:16;;;;;;;;;;;;;;;;;;5063470;28;19978;-67
2023/06/21 00:38:42;;;;;;;;;;;;;;;;;;5063676;28;20378;-66
2023/06/21 00:41:09;;;;;;;;;;;;;;;;;;5062125;28;19987;-67
2023/06/21 00:43:37;;;;;;;;;;;;;;;;;;5060868;28;20009;-67
2023/06/21 00:46:04;;;;;;;;;;;;;;;;;;5064832;28;20014;-69
2023/06/21 00:48:31;;;;;;;;;;;;;;;;;;5064734;28;19978;-67
2023/06/21 00:50:58;;;;;;;;;;;;;;;;;;5064952;28;19986;-67
2023/06/21 00:53:26;;;;;;;;;;;;;;;;;;5066250;28;19925;-66
2023/06/21 00:55:52;;;;;;;;;;;;;;;;;;5061814;28;19958;-67
2023/06/21 00:58:20;;;;;;;;;;;;;;;;;;5064708;28;19924;-67
2023/06/21 01:00:47;;;;;;;;;;;;;;;;;;5063959;28;19924;-67
2023/06/21 01:03:14;;;;;;;;;;;;;;;;;;5052290;28;19970;-67
2023/06/21 01:05:41;;;;;;;;;;;;;;;;;;5052097;28;19982;-66
2023/06/21 01:08:08;;;;;;;;;;;;;;;;;;5052867;28;19972;-67
2023/06/21 01:10:35;;;;;;;;;;;;;;;;;;5056829;28;19924;-67
2023/06/21 01:13:04;;;;;;;;;;;;;;;;;;5064718;28;19924;-67
2023/06/21 01:15:31;;;;;;;;;;;;;;;;;;5056099;28;20032;-67
2023/06/21 01:17:58;;;;;;;;;;;;;;;;;;5056301;28;19994;-67
2023/06/21 01:20:25;;;;;;;;;;;;;;;;;;5055971;28;19951;-66
2023/06/21 01:22:51;;;;;;;;;;;;;;;;;;5057636;28;20345;-66
2023/06/21 01:25:18;;;;;;;;;;;;;;;;;;5071470;28;19997;-67
2023/06/21 01:27:48;;;;;;;;;;;;;;;;;;5067325;28;20081;-66
2023/06/21 01:30:15;;;;;;;;;;;;;;;;;;5064411;28;19932;-67
2023/06/21 01:32:42;;;;;;;;;;;;;;;;;;5055740;28;19928;-67
2023/06/21 01:35:09;;;;;;;;;;;;;;;;;;5064977;28;19933;-67
2023/06/21 01:37:35;;;;;;;;;;;;;;;;;;5066607;28;19964;-67
2023/06/21 01:40:10;;;;;;;;;;;;;;;;;;5065515;28;19974;-67
2023/06/21 01:42:37;;;;;;;;;;;;;;;;;;5070791;28;20369;-66
2023/06/21 01:45:04;;;;;;;;;;;;;;;;;;5065624;28;19924;-66
2023/06/21 01:47:30;;;;;;;;;;;;;;;;;;5066007;28;20347;-67
2023/06/21 01:49:57;;;;;;;;;;;;;;;;;;5066082;28;20334;-67
2023/06/21 01:52:24;;;;;;;;;;;;;;;;;;5062734;28;20348;-68
2023/06/21 01:54:51;;;;;;;;;;;;;;;;;;5073615;28;19928;-66
2023/06/21 01:57:18;;;;;;;;;;;;;;;;;;5068741;28;19978;-67
2023/06/21 01:59:45;;;;;;;;;;;;;;;;;;5065978;28;20385;-66
2023/06/21 02:02:12;;;;;;;;;;;;;;;;;;5065676;28;20434;-66
2023/06/21 02:04:39;;;;;;;;;;;;;;;;;;5065624;28;19989;-66
2023/06/21 02:07:07;;;;;;;;;;;;;;;;;;5064598;28;20054;-65
2023/06/21 02:09:34;;;;;;;;;;;;;;;;;;5067482;28;19960;-66
2023/06/21 02:12:01;;;;;;;;;;;;;;;;;;5071216;28;20021;-66
2023/06/21 02:14:28;;;;;;;;;;;;;;;;;;5065862;28;20355;-65
2023/06/21 02:16:55;;;;;;;;;;;;;;;;;;5066006;28;20393;-67
2023/06/21 02:19:22;;;;;;;;;;;;;;;;;;5064505;28;20379;-66
2023/06/21 02:21:49;;;;;;;;;;;;;;;;;;5068580;28;20290;-66
2023/06/21 02:24:16;;;;;;;;;;;;;;;;;;5068963;28;19928;-66
2023/06/21 02:26:43;;;;;;;;;;;;;;;;;;5068874;28;19929;-70
2023/06/21 02:29:10;;;;;;;;;;;;;;;;;;5066839;28;20343;-66
2023/06/21 02:31:37;;;;;;;;;;;;;;;;;;5063359;28;20069;-66
2023/06/21 02:34:04;;;;;;;;;;;;;;;;;;5064367;28;19990;-67
2023/06/21 02:36:30;;;;;;;;;;;;;;;;;;5069232;28;20023;-65
2023/06/21 02:38:57;;;;;;;;;;;;;;;;;;5067098;28;19971;-66
2023/06/21 02:41:24;;;;;;;;;;;;;;;;;;5063445;28;19925;-66
2023/06/21 02:43:51;;;;;;;;;;;;;;;;;;5063358;28;19929;-65
2023/06/21 02:46:18;;;;;;;;;;;;;;;;;;5063868;28;19929;-66
2023/06/21 02:48:45;;;;;;;;;;;;;;;;;;5062812;28;20263;-66
2023/06/21 02:51:12;;;;;;;;;;;;;;;;;;5064339;28;19986;-67
2023/06/21 02:53:39;;;;;;;;;;;;;;;;;;5067956;28;19935;-66
2023/06/21 02:56:05;;;;;;;;;;;;;;;;;;5067529;28;19997;-66
2023/06/21 02:58:33;;;;;;;;;;;;;;;;;;5064795;28;19986;-67
2023/06/21 03:00:59;;;;;;;;;;;;;;;;;;5063328;28;19928;-65
2023/06/21 03:03:26;;;;;;;;;;;;;;;;;;5069504;28;19924;-67
2023/06/21 03:05:53;;;;;;;;;;;;;;;;;;5066048;28;19924;-66
2023/06/21 03:08:20;;;;;;;;;;;;;;;;;;5071790;28;19924;-67
2023/06/21 03:10:47;;;;;;;;;;;;;;;;;;5071040;28;19924;-66
2023/06/21 03:13:14;;;;;;;;;;;;;;;;;;5065883;28;19929;-66
2023/06/21 03:15:41;;;;;;;;;;;;;;;;;;5065278;28;19925;-67
2023/06/21 03:18:07;;;;;;;;;;;;;;;;;;5068825;28;19924;-67
2023/06/21 03:20:34;;;;;;;;;;;;;;;;;;5065216;28;19971;-66
2023/06/21 03:23:01;;;;;;;;;;;;;;;;;;5069111;28;19924;-66
2023/06/21 03:25:28;;;;;;;;;;;;;;;;;;5064524;28;19925;-66
2023/06/21 03:27:59;;;;;;;;;;;;;;;;;;5071966;28;20339;-66
2023/06/21 03:30:26;;;;;;;;;;;;;;;;;;5065304;28;19994;-66
2023/06/21 03:32:52;;;;;;;;;;;;;;;;;;5063157;28;19925;-66
2023/06/21 03:35:19;;;;;;;;;;;;;;;;;;5062283;28;19928;-66
2023/06/21 03:37:47;;;;;;;;;;;;;;;;;;5062404;28;19975;-66
2023/06/21 03:40:14;;;;;;;;;;;;;;;;;;5068379;28;19983;-65
2023/06/21 03:42:40;;;;;;;;;;;;;;;;;;5065885;28;19951;-66
2023/06/21 03:45:08;;;;;;;;;;;;;;;;;;5063485;28;19978;-66
2023/06/21 03:47:35;;;;;;;;;;;;;;;;;;5064407;28;19931;-66
2023/06/21 03:50:01;;;;;;;;;;;;;;;;;;5061992;28;19925;-66
2023/06/21 03:52:28;;;;;;;;;;;;;;;;;;5065510;28;20327;-67
2023/06/21 03:54:55;;;;;;;;;;;;;;;;;;5067994;28;20384;-66
2023/06/21 03:57:22;;;;;;;;;;;;;;;;;;5066275;28;19924;-66
2023/06/21 03:59:49;;;;;;;;;;;;;;;;;;5064279;28;19924;-67
2023/06/21 04:02:16;;;;;;;;;;;;;;;;;;5067596;28;20419;-67
2023/06/21 04:04:43;;;;;;;;;;;;;;;;;;5064197;28;20445;-67
2023/06/21 04:07:09;;;;;;;;;;;;;;;;;;5064682;28;20373;-66
2023/06/21 04:09:36;;;;;;;;;;;;;;;;;;5062915;28;20328;-66
2023/06/21 04:12:03;;;;;;;;;;;;;;;;;;5061643;28;20274;-67
2023/06/21 04:14:30;;;;;;;;;;;;;;;;;;5060126;28;19987;-67
2023/06/21 04:16:57;;;;;;;;;;;;;;;;;;5065304;28;20038;-66
2023/06/21 04:19:24;;;;;;;;;;;;;;;;;;5061551;28;19994;-66
2023/06/21 04:21:51;;;;;;;;;;;;;;;;;;5062685;28;20351;-66
2023/06/21 04:24:18;;;;;;;;;;;;;;;;;;5069072;28;19925;-66
2023/06/21 04:26:45;;;;;;;;;;;;;;;;;;5065552;28;19929;-66
2023/06/21 04:29:12;;;;;;;;;;;;;;;;;;5059467;28;19928;-67
2023/06/21 04:31:39;;;;;;;;;;;;;;;;;;5065535;28;19924;-67
2023/06/21 04:34:05;;;;;;;;;;;;;;;;;;5062158;28;19931;-69
2023/06/21 04:36:32;;;;;;;;;;;;;;;;;;5064842;28;19979;-68
2023/06/21 04:39:00;;;;;;;;;;;;;;;;;;5066680;28;19925;-69
2023/06/21 04:41:26;;;;;;;;;;;;;;;;;;5061053;28;19924;-68
2023/06/21 04:43:53;;;;;;;;;;;;;;;;;;5059970;28;19983;-68
2023/06/21 04:46:21;;;;;;;;;;;;;;;;;;5064558;28;19971;-68
2023/06/21 04:48:48;;;;;;;;;;;;;;;;;;5065487;28;19931;-68
2023/06/21 04:51:16;;;;;;;;;;;;;;;;;;5065055;28;19928;-68
2023/06/21 04:53:42;;;;;;;;;;;;;;;;;;5066206;28;20708;-68
2023/06/21 04:56:12;;;;;;;;;;;;;;;;;;5065787;28;19925;-67
2023/06/21 04:58:39;;;;;;;;;;;;;;;;;;5066412;28;19928;-67
2023/06/21 05:01:06;;;;;;;;;;;;;;;;;;5065181;28;20393;-67
2023/06/21 05:03:33;;;;;;;;;;;;;;;;;;5062979;28;19928;-66
2023/06/21 05:06:00;;;;;;;;;;;;;;;;;;5062528;28;19925;-67
2023/06/21 05:08:27;;;;;;;;;;;;;;;;;;5067247;28;20431;-67
2023/06/21 05:10:54;;;;;;;;;;;;;;;;;;5063937;28;19970;-67
2023/06/21 05:13:20;;;;;;;;;;;;;;;;;;5067010;28;20354;-67
2023/06/21 05:15:47;;;;;;;;;;;;;;;;;;5066129;28;19939;-67
2023/06/21 05:18:14;;;;;;;;;;;;;;;;;;5064160;28;19929;-68
2023/06/21 05:20:41;;;;;;;;;;;;;;;;;;5062172;28;19924;-64
2023/06/21 05:23:08;;;;;;;;;;;;;;;;;;5062724;28;20293;-67
2023/06/21 05:25:35;;;;;;;;;;;;;;;;;;5066466;28;20331;-67
2023/06/21 05:28:02;;;;;;;;;;;;;;;;;;5065673;28;19928;-62
2023/06/21 05:30:28;;;;;;;;;;;;;;;;;;5061246;28;19925;-65
2023/06/21 05:32:55;;;;;;;;;;;;;;;;;;5062650;28;19928;-65
2023/06/21 05:35:22;;;;;;;;;;;;;;;;;;5065321;28;19929;-65
2023/06/21 05:37:52;;;;;;;;;;;;;;;;;;5069231;28;20331;-65
2023/06/21 05:40:19;;;;;;;;;;;;;;;;;;5065714;28;19925;-66
2023/06/21 05:42:46;;;;;;;;;;;;;;;;;;5067016;28;19924;-66
2023/06/21 05:45:13;;;;;;;;;;;;;;;;;;5063888;28;19970;-65
2023/06/21 05:47:40;;;;;;;;;;;;;;;;;;5067030;28;20297;-67
2023/06/21 05:50:07;;;;;;;;;;;;;;;;;;5059339;28;19925;-66
2023/06/21 05:52:34;;;;;;;;;;;;;;;;;;5060189;28;20425;-64
2023/06/21 05:55:01;;;;;;;;;;;;;;;;;;5067120;28;20389;-65
2023/06/21 05:57:28;;;;;;;;;;;;;;;;;;5068711;28;20328;-65
2023/06/21 05:59:55;;;;;;;;;;;;;;;;;;5070435;28;20331;-65
2023/06/21 06:02:22;;;;;;;;;;;;;;;;;;5067439;28;19928;-65
2023/06/21 06:04:49;;;;;;;;;;;;;;;;;;5069682;28;19925;-66
2023/06/21 06:07:19;;;;;;;;;;;;;;;;;;5070258;28;20042;-66
2023/06/21 06:09:46;;;;;;;;;;;;;;;;;;5066712;28;20624;-67
2023/06/21 06:12:13;;;;;;;;;;;;;;;;;;5070842;28;20019;-64
2023/06/21 06:14:40;;;;;;;;;;;;;;;;;;5063649;28;19932;-64
2023/06/21 06:17:06;;;;;;;;;;;;;;;;;;5070585;28;19925;-63
2023/06/21 06:19:33;;;;;;;;;;;;;;;;;;5069213;28;19986;-63
2023/06/21 06:22:00;;;;;;;;;;;;;;;;;;5066180;28;19932;-63
2023/06/21 06:24:27;;;;;;;;;;;;;;;;;;5065785;28;19925;-64
2023/06/21 06:26:54;;;;;;;;;;;;;;;;;;5073129;28;19925;-63
2023/06/21 06:29:21;;;;;;;;;;;;;;;;;;5063101;28;19925;-63
2023/06/21 06:31:48;;;;;;;;;;;;;;;;;;5069887;28;19953;-62
2023/06/21 06:34:15;;;;;;;;;;;;;;;;;;5062299;28;19968;-63
2023/06/21 06:36:42;;;;;;;;;;;;;;;;;;5062026;28;19925;-62
2023/06/21 06:39:09;;;;;;;;;;;;;;;;;;5069598;28;20425;-63
2023/06/21 06:41:36;;;;;;;;;;;;;;;;;;5067748;28;19948;-66
2023/06/21 06:44:03;;;;;;;;;;;;;;;;;;5062187;28;19932;-67
2023/06/21 06:46:29;;;;;;;;;;;;;;;;;;5063121;28;19932;-61
2023/06/21 06:48:56;;;;;;;;;;;;;;;;;;5064381;28;19925;-63
2023/06/21 06:51:23;;;;;;;;;;;;;;;;;;5063100;28;19974;-63
2023/06/21 06:53:50;;;;;;;;;;;;;;;;;;5068142;28;19924;-63
2023/06/21 06:56:17;;;;;;;;;;;;;;;;;;5069706;28;19974;-64
2023/06/21 06:58:44;;;;;;;;;;;;;;;;;;5069996;28;19979;-65
2023/06/21 07:01:11;;;;;;;;;;;;;;;;;;5066150;28;19924;-62
2023/06/21 07:03:37;;;;;;;;;;;;;;;;;;5061246;28;20396;-63
2023/06/21 07:06:04;;;;;;;;;;;;;;;;;;5065649;28;20393;-64
2023/06/21 07:08:31;;;;;;;;;;;;;;;;;;5068112;28;20217;-63
2023/06/21 07:10:58;;;;;;;;;;;;;;;;;;5063086;28;19924;-64
2023/06/21 07:13:25;;;;;;;;;;;;;;;;;;5062469;28;20002;-64
2023/06/21 07:15:52;;;;;;;;;;;;;;;;;;5065359;28;19933;-64
2023/06/21 07:18:18;;;;;;;;;;;;;;;;;;5069260;28;19932;-65
2023/06/21 07:20:46;;;;;;;;;;;;;;;;;;5066848;28;19924;-63
2023/06/21 07:23:13;;;;;;;;;;;;;;;;;;5065801;28;19929;-65
2023/06/21 07:25:39;;;;;;;;;;;;;;;;;;5068699;28;19986;-64
2023/06/21 07:28:06;;;;;;;;;;;;;;;;;;5068424;28;19924;-64
2023/06/21 07:30:33;;;;;;;;;;;;;;;;;;5067639;28;19994;-64
2023/06/21 07:33:00;;;;;;;;;;;;;;;;;;5062729;28;20380;-64
2023/06/21 07:35:27;;;;;;;;;;;;;;;;;;5062779;28;20434;-63
2023/06/21 07:37:54;;;;;;;;;;;;;;;;;;5064488;28;20454;-61
2023/06/21 07:40:21;;;;;;;;;;;;;;;;;;5066804;28;20436;-62
2023/06/21 07:42:49;;;;;;;;;;;;;;;;;;5064028;28;20377;-64
2023/06/21 07:45:16;;;;;;;;;;;;;;;;;;5062140;28;19925;-64
2023/06/21 07:47:43;;;;;;;;;;;;;;;;;;5065341;28;19925;-63
2023/06/21 07:50:10;;;;;;;;;;;;;;;;;;5064225;28;19924;-60
2023/06/21 07:52:37;;;;;;;;;;;;;;;;;;5065075;28;19928;-62
2023/06/21 07:55:05;;;;;;;;;;;;;;;;;;5065555;28;19928;-64
2023/06/21 07:57:32;;;;;;;;;;;;;;;;;;5064225;28;19931;-64
2023/06/21 08:00:09;;;;;;;;;;;;;;;;;;5065300;28;19928;-64
2023/06/21 08:02:35;;;;;;;;;;;;;;;;;;5066150;28;19936;-64
2023/06/21 08:05:02;;;;;;;;;;;;;;;;;;5067116;28;19925;-63
2023/06/21 08:07:29;;;;;;;;;;;;;;;;;;5062491;28;19931;-62
2023/06/21 08:09:56;;;;;;;;;;;;;;;;;;5063699;28;19978;-62
2023/06/21 08:12:23;;;;;;;;;;;;;;;;;;5064821;28;20019;-62
2023/06/21 08:14:50;;;;;;;;;;;;;;;;;;5063415;28;20343;-63
2023/06/21 08:17:17;;;;;;;;;;;;;;;;;;5069058;28;19931;-63
2023/06/21 08:19:44;;;;;;;;;;;;;;;;;;5066514;28;19933;-61
2023/06/21 08:22:11;;;;;;;;;;;;;;;;;;5069240;28;19924;-63
2023/06/21 08:24:37;;;;;;;;;;;;;;;;;;5068463;28;19928;-63
2023/06/21 08:27:04;;;;;;;;;;;;;;;;;;5066750;28;19936;-64
2023/06/21 08:29:31;;;;;;;;;;;;;;;;;;5059498;28;19928;-62
2023/06/21 08:31:58;;;;;;;;;;;;;;;;;;5064912;28;19928;-63
2023/06/21 08:34:25;;;;;;;;;;;;;;;;;;5066155;28;19924;-61
2023/06/21 08:36:52;;;;;;;;;;;;;;;;;;5060376;28;19970;-64
2023/06/21 08:39:19;;;;;;;;;;;;;;;;;;5061266;28;19924;-61
2023/06/21 08:41:45;;;;;;;;;;;;;;;;;;5067604;28;19935;-62
2023/06/21 08:44:12;;;;;;;;;;;;;;;;;;5067506;28;19974;-63
2023/06/21 08:46:39;;;;;;;;;;;;;;;;;;5062433;28;19948;-62
2023/06/21 08:49:06;;;;;;;;;;;;;;;;;;5067720;28;19929;-62
2023/06/21 08:51:33;;;;;;;;;;;;;;;;;;5057295;28;19956;-62
2023/06/21 08:54:00;;;;;;;;;;;;;;;;;;5070328;28;19929;-62
2023/06/21 08:56:27;;;;;;;;;;;;;;;;;;5071273;28;20341;-63
2023/06/21 08:58:54;;;;;;;;;;;;;;;;;;5063478;28;19978;-63
2023/06/21 09:01:21;;;;;;;;;;;;;;;;;;5063073;28;19925;-62
2023/06/21 09:03:48;;;;;;;;;;;;;;;;;;5062798;28;19966;-63
2023/06/21 09:06:15;;;;;;;;;;;;;;;;;;5065026;28;20409;-65
2023/06/21 09:08:42;;;;;;;;;;;;;;;;;;5060777;28;19925;-64
2023/06/21 09:11:08;;;;;;;;;;;;;;;;;;5059862;28;19970;-63
2023/06/21 09:13:35;;;;;;;;;;;;;;;;;;5063498;28;19924;-63
2023/06/21 09:16:03;;;;;;;;;;;;;;;;;;5061689;28;19924;-61
2023/06/21 09:18:35;;;;;;;;;;;;;;;;;;5062536;28;19925;-63
2023/06/21 09:21:02;;;;;;;;;;;;;;;;;;5066751;28;19990;-66
2023/06/21 09:23:29;;;;;;;;;;;;;;;;;;5062419;28;19924;-65
2023/06/21 09:25:56;;;;;;;;;;;;;;;;;;5068594;28;19924;-65
2023/06/21 09:28:23;;;;;;;;;;;;;;;;;;5059907;28;19925;-65
2023/06/21 09:30:49;;;;;;;;;;;;;;;;;;5064656;28;20274;-64
2023/06/21 09:33:16;;;;;;;;;;;;;;;;;;5069685;28;20334;-65
2023/06/21 09:35:44;;;;;;;;;;;;;;;;;;5066843;28;19933;-66
2023/06/21 09:38:11;;;;;;;;;;;;;;;;;;5066347;28;19936;-68
2023/06/21 09:40:38;;;;;;;;;;;;;;;;;;5065831;28;19978;-67
2023/06/21 09:43:05;;;;;;;;;;;;;;;;;;5067775;28;19982;-67
2023/06/21 09:45:32;;;;;;;;;;;;;;;;;;5065486;28;19929;-66
2023/06/21 09:47:59;;;;;;;;;;;;;;;;;;5069582;28;19985;-66
2023/06/21 09:50:26;;;;;;;;;;;;;;;;;;5063821;28;19932;-65
2023/06/21 09:52:54;;;;;;;;;;;;;;;;;;5066072;28;20286;-64
2023/06/21 09:55:21;;;;;;;;;;;;;;;;;;5067344;28;19928;-65
2023/06/21 09:57:48;;;;;;;;;;;;;;;;;;5070054;28;19933;-64
2023/06/21 10:00:15;;;;;;;;;;;;;;;;;;5055776;28;19959;-66
2023/06/21 10:02:42;;;;;;;;;;;;;;;;;;5068297;28;19924;-64
2023/06/21 10:05:08;;;;;;;;;;;;;;;;;;5065003;28;19925;-65
2023/06/21 10:07:36;;;;;;;;;;;;;;;;;;5068993;28;19928;-64
2023/06/21 10:10:03;;;;;;;;;;;;;;;;;;5068874;28;20427;-68
2023/06/21 10:12:30;;;;;;;;;;;;;;;;;;5067776;28;19947;-64
2023/06/21 10:14:57;;;;;;;;;;;;;;;;;;5070461;28;19924;-66
2023/06/21 10:17:24;;;;;;;;;;;;;;;;;;5069791;28;19928;-68
2023/06/21 10:19:51;;;;;;;;;;;;;;;;;;5066359;28;20035;-63
2023/06/21 10:22:18;;;;;;;;;;;;;;;;;;5068308;28;20443;-62
2023/06/21 10:24:45;;;;;;;;;;;;;;;;;;5065240;28;20389;-64
2023/06/21 10:27:12;;;;;;;;;;;;;;;;;;5071175;28;19929;-64
2023/06/21 10:29:39;;;;;;;;;;;;;;;;;;5070511;28;19951;-63
2023/06/21 10:32:05;;;;;;;;;;;;;;;;;;5073972;28;19978;-65
2023/06/21 10:34:32;;;;;;;;;;;;;;;;;;5065134;28;19924;-64
2023/06/21 10:36:59;;;;;;;;;;;;;;;;;;5065277;28;19925;-65
2023/06/21 10:39:26;;;;;;;;;;;;;;;;;;5062809;28;19929;-67
2023/06/21 10:41:53;;;;;;;;;;;;;;;;;;5062919;28;19993;-65
2023/06/21 10:44:20;;;;;;;;;;;;;;;;;;5062405;28;20348;-64
2023/06/21 10:46:47;;;;;;;;;;;;;;;;;;5065179;28;20336;-64
2023/06/21 10:49:13;;;;;;;;;;;;;;;;;;5066223;28;19924;-65
2023/06/21 10:51:41;;;;;;;;;;;;;;;;;;5068466;28;19925;-66
2023/06/21 10:54:08;;;;;;;;;;;;;;;;;;5065102;28;19924;-67
2023/06/21 10:56:35;;;;;;;;;;;;;;;;;;5066830;28;19928;-65
2023/06/21 10:59:02;;;;;;;;;;;;;;;;;;5065192;28;19924;-66
2023/06/21 11:01:29;;;;;;;;;;;;;;;;;;5062952;28;19925;-66
2023/06/21 11:03:56;;;;;;;;;;;;;;;;;;5069062;28;19928;-68
2023/06/21 11:06:22;;;;;;;;;;;;;;;;;;5055387;28;19929;-67
2023/06/21 11:08:49;;;;;;;;;;;;;;;;;;5068927;28;19933;-66
2023/06/21 11:11:16;;;;;;;;;;;;;;;;;;5064918;28;19928;-67
2023/06/21 11:13:44;;;;;;;;;;;;;;;;;;5063189;28;19959;-67
2023/06/21 11:16:11;;;;;;;;;;;;;;;;;;5066138;28;19925;-67
2023/06/21 11:18:38;;;;;;;;;;;;;;;;;;5063044;28;20429;-68
2023/06/21 11:21:05;;;;;;;;;;;;;;;;;;5067062;28;20482;-68
2023/06/21 11:23:32;;;;;;;;;;;;;;;;;;5063500;28;19932;-68
2023/06/21 11:25:59;;;;;;;;;;;;;;;;;;5067821;28;19932;-66
2023/06/21 11:28:26;;;;;;;;;;;;;;;;;;5068313;28;19924;-67
2023/06/21 11:30:53;;;;;;;;;;;;;;;;;;5068005;28;19925;-67
2023/06/21 11:33:20;;;;;;;;;;;;;;;;;;5071947;28;19924;-67
2023/06/21 11:35:47;;;;;;;;;;;;;;;;;;5064178;28;19928;-65
2023/06/21 11:38:14;;;;;;;;;;;;;;;;;;5062029;28;19928;-64
2023/06/21 11:40:41;;;;;;;;;;;;;;;;;;5060849;28;19925;-64
2023/06/21 11:43:08;;;;;;;;;;;;;;;;;;5063106;28;19924;-64
2023/06/21 11:45:35;;;;;;;;;;;;;;;;;;5062901;28;19986;-64
2023/06/21 11:48:02;;;;;;;;;;;;;;;;;;5068898;28;19925;-65
2023/06/21 11:50:28;;;;;;;;;;;;;;;;;;5064768;28;19925;-66
2023/06/21 11:52:55;;;;;;;;;;;;;;;;;;5063489;28;19924;-65
2023/06/21 11:55:22;;;;;;;;;;;;;;;;;;5068486;28;19924;-64
2023/06/21 11:57:49;;;;;;;;;;;;;;;;;;5063908;28;19924;-65
2023/06/21 12:00:16;;;;;;;;;;;;;;;;;;5059929;28;19936;-65
2023/06/21 12:02:43;;;;;;;;;;;;;;;;;;5066805;28;19975;-65
2023/06/21 12:05:10;;;;;;;;;;;;;;;;;;5068536;28;19924;-64
2023/06/21 12:07:37;;;;;;;;;;;;;;;;;;5064213;28;19933;-65
2023/06/21 12:10:03;;;;;;;;;;;;;;;;;;5064472;28;19944;-65
2023/06/21 12:12:30;;;;;;;;;;;;;;;;;;5060726;28;20286;-65
2023/06/21 12:14:57;;;;;;;;;;;;;;;;;;5063977;28;20348;-65
2023/06/21 12:17:24;;;;;;;;;;;;;;;;;;5063121;28;20019;-64
2023/06/21 12:19:51;;;;;;;;;;;;;;;;;;5069139;28;20331;-64
2023/06/21 12:22:18;;;;;;;;;;;;;;;;;;5061109;28;19986;-68
2023/06/21 12:24:45;;;;;;;;;;;;;;;;;;5067240;28;19990;-65
2023/06/21 12:27:11;;;;;;;;;;;;;;;;;;5069321;28;20017;-66
2023/06/21 12:29:38;;;;;;;;;;;;;;;;;;5064688;28;19925;-65
2023/06/21 12:32:05;;;;;;;;;;;;;;;;;;5066960;28;19932;-64
2023/06/21 12:34:32;;;;;;;;;;;;;;;;;;5063834;28;19928;-63
2023/06/21 12:36:59;;;;;;;;;;;;;;;;;;5064771;28;20327;-65
2023/06/21 12:39:26;;;;;;;;;;;;;;;;;;5065376;28;20377;-66
2023/06/21 12:41:53;;;;;;;;;;;;;;;;;;5061952;28;19947;-66
2023/06/21 12:44:20;;;;;;;;;;;;;;;;;;5066435;28;19924;-66
2023/06/21 12:46:47;;;;;;;;;;;;;;;;;;5062912;28;20070;-65
2023/06/21 12:49:14;;;;;;;;;;;;;;;;;;5061031;28;19925;-66
2023/06/21 12:51:41;;;;;;;;;;;;;;;;;;5063991;28;19938;-66
2023/06/21 12:54:08;;;;;;;;;;;;;;;;;;5066162;28;19978;-66
2023/06/21 12:56:35;;;;;;;;;;;;;;;;;;5059455;28;19933;-67
2023/06/21 12:59:02;;;;;;;;;;;;;;;;;;5065594;28;19928;-66
2023/06/21 13:01:29;;;;;;;;;;;;;;;;;;5062772;28;20003;-66
2023/06/21 13:03:55;;;;;;;;;;;;;;;;;;5062453;28;20282;-67
2023/06/21 13:06:22;;;;;;;;;;;;;;;;;;5067583;28;20335;-66
2023/06/21 13:08:49;;;;;;;;;;;;;;;;;;5065907;28;20465;-66
2023/06/21 13:11:16;;;;;;;;;;;;;;;;;;5065544;28;20378;-66
2023/06/21 13:13:43;;;;;;;;;;;;;;;;;;5055952;28;20431;-66
2023/06/21 13:16:10;;;;;;;;;;;;;;;;;;5055718;28;19955;-66
2023/06/21 13:18:37;;;;;;;;;;;;;;;;;;5056094;28;19935;-66
2023/06/21 13:21:04;;;;;;;;;;;;;;;;;;5055981;28;19955;-65
2023/06/21 13:23:30;;;;;;;;;;;;;;;;;;5068123;28;19970;-66
2023/06/21 13:25:57;;;;;;;;;;;;;;;;;;5068424;28;19928;-66
2023/06/21 13:28:24;;;;;;;;;;;;;;;;;;5065410;28;19929;-66
2023/06/21 13:30:51;;;;;;;;;;;;;;;;;;5066714;28;19978;-66
2023/06/21 13:33:18;;;;;;;;;;;;;;;;;;5065558;28;20368;-65
2023/06/21 13:35:45;;;;;;;;;;;;;;;;;;5068234;28;19994;-66
2023/06/21 13:38:13;;;;;;;;;;;;;;;;;;5064531;28;19925;-66
2023/06/21 13:40:40;;;;;;;;;;;;;;;;;;5067785;28;19946;-67
2023/06/21 13:43:07;;;;;;;;;;;;;;;;;;5066638;28;20353;-66
2023/06/21 13:45:34;;;;;;;;;;;;;;;;;;5068979;28;20324;-66
2023/06/21 13:48:01;;;;;;;;;;;;;;;;;;5064230;28;20344;-66
2023/06/21 13:50:27;;;;;;;;;;;;;;;;;;5066171;28;20063;-66
2023/06/21 13:52:54;;;;;;;;;;;;;;;;;;5066327;28;20087;-66
2023/06/21 13:55:21;;;;;;;;;;;;;;;;;;5073578;28;19994;-67
2023/06/21 13:57:52;;;;;;;;;;;;;;;;;;5067798;28;19929;-66
2023/06/21 14:00:19;;;;;;;;;;;;;;;;;;5063547;28;19929;-66
2023/06/21 14:02:46;;;;;;;;;;;;;;;;;;5065896;28;19931;-66
2023/06/21 14:05:13;;;;;;;;;;;;;;;;;;5070009;28;19924;-68
2023/06/21 14:07:39;;;;;;;;;;;;;;;;;;5066479;28;19924;-67
2023/06/21 14:10:06;;;;;;;;;;;;;;;;;;5064861;28;20397;-67
2023/06/21 14:12:33;;;;;;;;;;;;;;;;;;5066527;28;20432;-66
2023/06/21 14:15:00;;;;;;;;;;;;;;;;;;5066233;28;20419;-66
2023/06/21 14:17:27;;;;;;;;;;;;;;;;;;5066510;28;19928;-67
2023/06/21 14:19:56;;;;;;;;;;;;;;;;;;5063634;28;19979;-65
2023/06/21 14:22:26;;;;;;;;;;;;;;;;;;5064107;28;19978;-65
2023/06/21 14:24:53;;;;;;;;;;;;;;;;;;5071176;28;19925;-67
2023/06/21 14:27:19;;;;;;;;;;;;;;;;;;5069765;28;19925;-66
2023/06/21 14:29:47;;;;;;;;;;;;;;;;;;5063517;28;20302;-66
2023/06/21 14:32:14;;;;;;;;;;;;;;;;;;5064632;28;19924;-66
2023/06/21 14:34:43;;;;;;;;;;;;;;;;;;5066251;28;20259;-66
2023/06/21 14:37:11;;;;;;;;;;;;;;;;;;5062402;28;19976;-67
2023/06/21 14:39:38;;;;;;;;;;;;;;;;;;5066841;28;19924;-67
2023/06/21 14:42:05;;;;;;;;;;;;;;;;;;5054715;28;19924;-66
2023/06/21 14:44:32;;;;;;;;;;;;;;;;;;5055132;28;19936;-66
2023/06/21 14:46:59;;;;;;;;;;;;;;;;;;5054747;28;19925;-66
2023/06/21 14:49:26;;;;;;;;;;;;;;;;;;5054460;28;20296;-66
2023/06/21 14:51:53;;;;;;;;;;;;;;;;;;5064342;28;20376;-66
2023/06/21 14:54:20;;;;;;;;;;;;;;;;;;5069186;28;20334;-66
2023/06/21 14:56:47;;;;;;;;;;;;;;;;;;5068174;28;19935;-66
2023/06/21 14:59:14;;;;;;;;;;;;;;;;;;5063132;28;19925;-66
2023/06/21 15:01:41;;;;;;;;;;;;;;;;;;5064077;28;19924;-65
2023/06/21 15:04:07;;;;;;;;;;;;;;;;;;5068599;28;19970;-66
2023/06/21 15:06:34;;;;;;;;;;;;;;;;;;5063190;28;19978;-66
2023/06/21 15:09:01;;;;;;;;;;;;;;;;;;5062976;28;19979;-67
2023/06/21 15:11:28;;;;;;;;;;;;;;;;;;5067880;28;19928;-67
2023/06/21 15:13:55;;;;;;;;;;;;;;;;;;5063430;28;19928;-67
2023/06/21 15:16:22;;;;;;;;;;;;;;;;;;5065816;28;20366;-67
2023/06/21 15:18:49;;;;;;;;;;;;;;;;;;5062716;28;20333;-66
2023/06/21 15:21:16;;;;;;;;;;;;;;;;;;5062609;28;19975;-66
2023/06/21 15:23:43;;;;;;;;;;;;;;;;;;5066540;28;19986;-66
2023/06/21 15:26:10;;;;;;;;;;;;;;;;;;5066907;28;19979;-66
2023/06/21 15:28:37;;;;;;;;;;;;;;;;;;5068769;28;19932;-66
2023/06/21 15:31:04;;;;;;;;;;;;;;;;;;5062505;28;19955;-66
2023/06/21 15:33:31;;;;;;;;;;;;;;;;;;5065728;28;19954;-66
2023/06/21 15:35:58;;;;;;;;;;;;;;;;;;5064682;28;19924;-66
2023/06/21 15:38:25;;;;;;;;;;;;;;;;;;5063248;28;20346;-70
2023/06/21 15:40:52;;;;;;;;;;;;;;;;;;5061555;28;19925;-67
2023/06/21 15:43:19;;;;;;;;;;;;;;;;;;5063998;28;19925;-67
2023/06/21 15:45:46;;;;;;;;;;;;;;;;;;5064611;28;19924;-67
2023/06/21 15:48:12;;;;;;;;;;;;;;;;;;5062025;28;19979;-67
2023/06/21 15:50:39;;;;;;;;;;;;;;;;;;5062749;28;19925;-67
2023/06/21 15:53:06;;;;;;;;;;;;;;;;;;5060502;28;19924;-67
2023/06/21 15:55:33;;;;;;;;;;;;;;;;;;5069992;28;19977;-67
2023/06/21 15:58:00;;;;;;;;;;;;;;;;;;5066520;28;19924;-67
2023/06/21 16:00:27;;;;;;;;;;;;;;;;;;5067634;28;19924;-69
2023/06/21 16:02:53;;;;;;;;;;;;;;;;;;5064520;28;20328;-67
2023/06/21 16:05:21;;;;;;;;;;;;;;;;;;5064764;28;20335;-66
2023/06/21 16:07:48;;;;;;;;;;;;;;;;;;5061606;28;19924;-67
2023/06/21 16:10:15;;;;;;;;;;;;;;;;;;5064581;28;19925;-66
2023/06/21 16:12:41;;;;;;;;;;;;;;;;;;5062077;28;19935;-65
2023/06/21 16:15:08;;;;;;;;;;;;;;;;;;5068493;28;19935;-66
2023/06/21 16:17:35;;;;;;;;;;;;;;;;;;5066015;28;19928;-65
2023/06/21 16:20:02;;;;;;;;;;;;;;;;;;5069863;28;19967;-71
2023/06/21 16:22:29;;;;;;;;;;;;;;;;;;5069836;28;20373;-67
2023/06/21 16:24:56;;;;;;;;;;;;;;;;;;5069621;28;20399;-64
2023/06/21 16:27:23;;;;;;;;;;;;;;;;;;5065437;28;20335;-62
2023/06/21 16:29:50;;;;;;;;;;;;;;;;;;5066072;28;19935;-63
2023/06/21 16:32:17;;;;;;;;;;;;;;;;;;5061385;28;19971;-64
2023/06/21 16:34:45;;;;;;;;;;;;;;;;;;5063887;28;19978;-64
2023/06/21 16:37:12;;;;;;;;;;;;;;;;;;5051661;28;20031;-64
2023/06/21 16:39:39;;;;;;;;;;;;;;;;;;5062654;28;19932;-64
2023/06/21 16:42:07;;;;;;;;;;;;;;;;;;5062153;28;20426;-64
2023/06/21 16:44:34;;;;;;;;;;;;;;;;;;5065267;28;19939;-64